Terminal Aerodrome Forecast
Issued by NWS Wakefield, VA

Home | Current Version | Previous Version | Text Only | Print | Product List | Glossary On
Versions: 1 2 3 4 5 6 7 8 9 10 11 12 13 14 15
790
FTUS41 KAKQ 221120
TAFORF
TAF
KORF 221120Z 2212/2312 19005KT P6SM SCT090 BKN250
     FM221900 15009KT P6SM BKN250
     FM230300 18008KT P6SM BKN090
     FM230700 18010KT P6SM BKN015=

USA.gov is the U.S. government's official web portal to all federal, state and local government web resources and services.